Time;durP1;ratioP1;P1;durP2;ratioP2;P2;SDS_P1;SDS_P2;PMS_P1;PMS_P2;Temp;Humidity;BMP_temperature;BMP_pressure;BME280_temperature;BME280_humidity;BME280_pressure;Samples;Min_cycle;Max_cycle;Signal;HPM_P1;HPM_P2
2022/12/15 00:40:58;;;;;;;3.70;2.70;;;;;;;1.00;74.04;98801.28;4441337;32;34169;-73
2022/12/15 00:43:31;;;;;;;1.08;1.00;;;;;;;1.28;72.42;98818.88;4428047;32;33462;-75
2022/12/15 00:48:46;;;;;;;2.10;1.35;;;;;;;1.20;72.87;98815.38;4429268;32;34107;-74
2022/12/15 00:51:14;;;;;;;4.65;1.52;;;;;;;1.56;71.61;98799.81;4440047;32;33958;-74
2022/12/15 01:21:25;;;;;;;34.22;21.25;;;;;;;1.27;73.37;98804.66;4447492;32;34984;-74
2022/12/15 01:23:52;;;;;;;0.77;0.73;;;;;;;1.06;74.13;98807.59;4439806;32;34041;-75
2022/12/15 01:26:20;;;;;;;1.40;1.30;;;;;;;1.31;73.12;98802.41;4451872;32;34324;-70
2022/12/15 01:28:47;;;;;;;36.28;20.12;;;;;;;1.90;70.87;98808.44;4453869;32;33169;-74
2022/12/15 01:31:15;;;;;;;33.65;20.08;;;;;;;2.22;69.60;98803.91;4460824;32;34737;-73
2022/12/15 01:33:42;;;;;;;38.50;21.05;;;;;;;1.81;70.46;98800.72;4460069;32;34061;-73
2022/12/15 01:36:10;;;;;;;35.20;21.83;;;;;;;1.69;71.43;98802.41;4424232;32;33831;-72
2022/12/15 01:38:38;;;;;;;4.78;2.55;;;;;;;1.54;71.97;98797.34;4424117;32;33314;-75
2022/12/15 01:41:09;;;;;;;36.63;21.15;;;;;;;2.06;70.15;98802.59;4446963;32;34313;-73
2022/12/15 01:43:38;;;;;;;35.55;20.83;;;;;;;2.00;70.22;98806.94;4468991;32;34230;-71
2022/12/15 01:46:15;;;;;;;37.67;21.42;;;;;;;1.89;70.26;98804.16;4469452;32;33801;-74
2022/12/15 01:49:16;;;;;;;34.63;21.00;;;;;;;1.85;70.71;98799.22;4451512;32;34114;-74
2022/12/15 01:51:47;;;;;;;34.45;21.42;;;;;;;1.78;70.92;98795.78;4465187;32;34876;-74
2022/12/15 01:54:20;;;;;;;36.78;19.87;;;;;;;1.77;71.22;98796.81;4441700;32;33522;-72
2022/12/15 01:56:51;;;;;;;2.03;1.92;;;;;;;1.53;72.11;98800.22;4434730;32;33546;-74
2022/12/15 01:59:32;;;;;;;4.15;3.17;;;;;;;1.94;71.08;98794.41;4424029;32;33702;-73
2022/12/15 02:01:59;;;;;;;1.20;1.12;;;;;;;1.98;70.35;98814.34;4424010;32;35020;-74
2022/12/15 02:04:28;;;;;;;34.42;22.52;;;;;;;2.02;70.42;98812.91;4460723;32;33986;-72
2022/12/15 02:06:55;;;;;;;37.00;21.80;;;;;;;1.95;70.44;98808.62;4468735;32;34651;-73
2022/12/15 02:09:23;;;;;;;34.25;20.75;;;;;;;2.05;70.45;98806.28;4468888;32;34140;-75
2022/12/15 02:11:58;;;;;;;36.30;20.98;;;;;;;1.79;70.87;98794.75;4439007;32;33807;-74
2022/12/15 02:14:52;;;;;;;36.15;20.33;;;;;;;1.44;73.11;98805.00;4446760;32;34810;-73
2022/12/15 02:17:48;;;;;;;33.58;21.05;;;;;;;1.68;71.45;98807.97;4453336;32;34703;-74
2022/12/15 02:20:36;;;;;;;37.55;22.05;;;;;;;1.44;72.86;98824.53;4428765;32;33009;-73
2022/12/15 02:23:28;;;;;;;33.83;20.52;;;;;;;1.73;71.91;98817.00;4468390;32;35084;-73
2022/12/15 02:26:04;;;;;;;33.10;19.70;;;;;;;2.04;71.11;98826.87;4456371;32;34208;-74
2022/12/15 02:28:59;;;;;;;35.88;21.30;;;;;;;1.94;71.17;98826.53;4456476;32;33826;-74
2022/12/15 02:31:49;;;;;;;33.42;19.98;;;;;;;2.12;70.78;98819.66;4460074;32;33834;-73
2022/12/15 02:34:17;;;;;;;32.88;19.58;;;;;;;2.17;70.34;98811.78;4458316;32;32701;-74
2022/12/15 02:36:48;;;;;;;2.25;2.03;;;;;;;2.28;70.15;98815.59;4469984;32;34025;-74
2022/12/15 02:39:17;;;;;;;33.63;20.92;;;;;;;1.89;70.71;98815.66;4456699;32;34458;-74
2022/12/15 02:41:46;;;;;;;34.58;20.98;;;;;;;1.40;73.98;98807.31;4470682;32;33899;-72
2022/12/15 02:44:18;;;;;;;1.10;0.80;;;;;;;1.92;71.42;98809.88;4470281;32;35056;-74
2022/12/15 02:47:12;;;;;;;34.03;19.80;;;;;;;2.14;71.08;98813.03;4469251;32;34191;-74
2022/12/15 02:49:58;;;;;;;33.03;21.27;;;;;;;2.51;69.84;98815.00;4470444;32;33792;-73
2022/12/15 02:53:03;;;;;;;34.55;21.05;;;;;;;2.53;69.10;98818.25;4469579;32;34609;-71
2022/12/15 02:55:49;;;;;;;33.05;19.87;;;;;;;2.70;68.69;98826.56;4470340;32;34324;-73
2022/12/15 02:58:27;;;;;;;3.30;3.00;;;;;;;2.44;69.65;98815.88;4469703;32;34759;-74
2022/12/15 03:01:07;;;;;;;3.03;2.83;;;;;;;2.72;68.50;98811.94;4456407;32;34691;-74
2022/12/15 03:03:37;;;;;;;38.28;21.62;;;;;;;2.62;68.92;98811.63;4443780;32;32854;-74
2022/12/15 03:06:05;;;;;;;35.78;21.67;;;;;;;2.63;68.72;98814.03;4443557;32;33389;-75
2022/12/15 03:08:32;;;;;;;35.60;21.10;;;;;;;2.80;68.47;98816.16;4456786;32;34867;-73
2022/12/15 03:11:00;;;;;;;7.97;6.00;;;;;;;2.66;68.80;98823.53;4456380;32;33540;-74
2022/12/15 03:13:27;;;;;;;1.92;1.75;;;;;;;2.84;68.25;98820.06;4455696;32;33755;-73
2022/12/15 03:15:57;;;;;;;36.20;21.92;;;;;;;2.71;68.25;98823.69;4470178;32;34849;-73
2022/12/15 03:18:25;;;;;;;36.17;21.35;;;;;;;2.49;69.25;98823.25;4470412;32;34173;-73
2022/12/15 03:20:52;;;;;;;1.40;1.20;;;;;;;2.73;68.55;98821.59;4455315;32;34712;-73
2022/12/15 03:23:21;;;;;;;33.90;20.48;;;;;;;2.97;67.96;98830.62;4470126;32;33708;-73
2022/12/15 03:25:49;;;;;;;36.83;21.33;;;;;;;2.83;67.72;98819.25;4470103;32;34307;-73
2022/12/15 03:28:16;;;;;;;36.90;21.50;;;;;;;2.67;67.68;98825.97;4469640;32;34832;-73
2022/12/15 03:30:44;;;;;;;33.92;21.23;;;;;;;3.19;65.75;98827.50;4453126;32;33453;-73
2022/12/15 03:33:17;;;;;;;38.13;21.42;;;;;;;3.02;65.07;98841.53;4453552;32;33411;-73
2022/12/15 03:35:44;;;;;;;41.45;23.55;;;;;;;3.22;64.78;98829.75;4452919;32;34267;-74
2022/12/15 03:38:12;;;;;;;38.65;23.55;;;;;;;2.98;64.86;98831.44;4453452;32;34841;-73
2022/12/15 03:40:39;;;;;;;2.28;2.03;;;;;;;2.26;67.06;98835.37;4454628;32;33721;-72
2022/12/15 03:43:07;;;;;;;32.58;20.52;;;;;;;2.02;68.32;98826.28;4455633;32;34666;-74
2022/12/15 03:45:34;;;;;;;38.03;21.05;;;;;;;1.86;68.75;98824.12;4453371;32;35037;-74
2022/12/15 03:48:02;;;;;;;35.35;21.87;;;;;;;1.52;69.78;98828.81;4453343;32;33949;-72
2022/12/15 03:50:29;;;;;;;36.17;21.33;;;;;;;1.74;69.40;98829.31;4453178;32;34555;-74
2022/12/15 03:53:02;;;;;;;37.50;22.13;;;;;;;2.08;67.75;98831.81;4448553;32;31968;-71
2022/12/15 03:55:30;;;;;;;39.17;23.35;;;;;;;1.79;68.74;98842.87;4440511;32;34972;-74
2022/12/15 03:57:58;;;;;;;3.17;2.90;;;;;;;1.90;68.67;98840.53;4438564;32;34247;-74
2022/12/15 04:00:26;;;;;;;39.50;24.15;;;;;;;2.33;67.50;98842.53;4439090;32;34557;-74
2022/12/15 04:02:53;;;;;;;36.38;23.20;;;;;;;1.98;68.02;98838.44;4424863;32;34625;-72
2022/12/15 04:05:30;;;;;;;41.25;23.67;;;;;;;2.06;68.19;98848.06;4438815;32;35162;-73
2022/12/15 04:07:59;;;;;;;38.70;22.55;;;;;;;1.76;69.25;98839.81;4425383;32;34025;-73
2022/12/15 04:10:29;;;;;;;1.62;1.52;;;;;;;2.15;67.96;98849.44;4436546;32;34592;-72
2022/12/15 04:13:07;;;;;;;42.13;22.55;;;;;;;2.18;68.58;98853.53;4454384;32;34039;-73
2022/12/15 04:15:36;;;;;;;36.20;22.33;;;;;;;2.50;67.09;98859.69;4453217;32;35148;-72
2022/12/15 04:18:05;;;;;;;11.65;6.57;;;;;;;2.45;67.69;98864.87;4440863;32;34989;-72
2022/12/15 04:20:33;;;;;;;35.28;21.75;;;;;;;2.59;66.86;98865.59;4431936;32;32940;-72
2022/12/15 04:23:00;;;;;;;35.83;20.92;;;;;;;2.54;67.13;98871.59;4454310;32;33689;-73
2022/12/15 05:32:27;;;;;;;36.67;22.62;;;;;;;1.31;72.14;98974.22;4446833;32;34997;-72
2022/12/15 05:34:54;;;;;;;43.53;24.12;;;;;;;1.68;71.08;98971.91;4438061;32;34318;-70
2022/12/15 05:37:21;;;;;;;25.90;15.73;;;;;;;2.02;69.73;98969.94;4438106;32;33828;-72
2022/12/15 05:39:49;;;;;;;43.75;24.23;;;;;;;2.03;69.40;98971.56;4451592;32;33869;-72
2022/12/15 05:42:16;;;;;;;39.33;23.48;;;;;;;1.74;70.22;98973.72;4453053;32;34153;-71
2022/12/15 05:44:44;;;;;;;44.00;26.27;;;;;;;1.50;71.09;98977.91;4458518;32;34165;-72
2022/12/15 05:47:11;;;;;;;39.70;24.17;;;;;;;1.62;71.20;98983.41;4451994;32;33528;-80
2022/12/15 05:49:39;;;;;;;44.42;25.77;;;;;;;1.40;72.00;98990.88;4450689;32;34670;-81
2022/12/15 05:52:07;;;;;;;42.55;25.67;;;;;;;1.33;72.85;98998.09;4438309;32;34369;-78
2022/12/15 05:54:34;;;;;;;42.85;25.02;;;;;;;1.48;72.73;99006.69;4438306;32;34329;-71
2022/12/15 05:57:02;;;;;;;45.55;26.45;;;;;;;1.37;73.00;99016.16;4443897;32;33795;-72
2022/12/15 05:59:29;;;;;;;1.80;1.50;;;;;;;1.07;74.14;99017.63;4469498;32;34867;-71
2022/12/15 06:01:57;;;;;;;43.87;24.98;;;;;;;1.41;73.26;99028.09;4465550;32;34989;-72
2022/12/15 06:04:24;;;;;;;45.75;25.88;;;;;;;1.65;72.50;99020.44;4439606;32;34634;-78
2022/12/15 06:06:52;;;;;;;8.30;6.45;;;;;;;1.59;72.95;99030.12;4425982;32;33465;-80
2022/12/15 06:09:19;;;;;;;11.15;7.50;;;;;;;1.62;72.94;99037.75;4453612;32;34066;-78
2022/12/15 06:11:47;;;;;;;48.22;27.75;;;;;;;1.91;71.16;99053.53;4453761;32;34070;-78
2022/12/15 06:14:14;;;;;;;46.00;25.88;;;;;;;1.36;73.36;99059.12;4455342;32;34923;-70
2022/12/15 06:16:42;;;;;;;45.15;26.10;;;;;;;1.55;72.73;99055.63;4449366;32;33714;-72
2022/12/15 06:19:18;;;;;;;8.35;5.72;;;;;;;1.86;71.90;99059.50;4437735;32;33359;-77
2022/12/15 06:21:46;;;;;;;45.75;25.30;;;;;;;1.96;71.60;99059.06;4424016;32;33462;-75
2022/12/15 06:24:14;;;;;;;48.72;26.77;;;;;;;2.11;70.61;99045.44;4447647;32;33985;-73
2022/12/15 06:26:41;;;;;;;45.50;26.05;;;;;;;2.25;69.87;99052.38;4442378;32;33734;-73
2022/12/15 06:29:10;;;;;;;51.10;29.67;;;;;;;1.17;73.75;99069.63;4462190;32;33633;-76
2022/12/15 06:31:39;;;;;;;50.85;29.60;;;;;;;0.95;74.97;99062.81;4454334;32;34935;-77
2022/12/15 06:34:09;;;;;;;52.95;30.67;;;;;;;1.69;72.59;99060.97;4442504;32;34188;-78
2022/12/15 06:36:37;;;;;;;51.65;29.12;;;;;;;1.55;72.62;99055.63;4439160;32;33825;-76
2022/12/15 06:39:07;;;;;;;70.72;37.85;;;;;;;1.62;72.46;99056.47;4453295;32;33588;-79
2022/12/15 06:41:35;;;;;;;24.70;14.63;;;;;;;1.27;74.05;99061.19;4453018;32;34287;-75
2022/12/15 06:44:04;;;;;;;5.78;5.12;;;;;;;1.20;74.87;99071.06;4453727;32;34880;-75
2022/12/15 06:46:34;;;;;;;51.22;31.65;;;;;;;1.45;74.28;99071.28;4437047;32;33273;-70
2022/12/15 06:49:02;;;;;;;53.60;31.37;;;;;;;2.19;71.26;99071.97;4439699;32;33929;-70
2022/12/15 06:51:29;;;;;;;56.20;32.10;;;;;;;1.52;72.78;99074.75;4446833;32;35081;-70
2022/12/15 06:53:57;;;;;;;54.95;31.27;;;;;;;1.41;74.10;99081.56;4451072;32;34242;-71
2022/12/15 06:56:31;;;;;;;4.80;3.17;;;;;;;1.59;73.95;99093.47;4437176;32;33596;-69
2022/12/15 06:59:05;;;;;;;54.55;31.55;;;;;;;1.58;74.43;99108.69;4452741;32;34577;-70
2022/12/15 07:01:33;;;;;;;59.25;33.42;;;;;;;1.74;73.65;99112.78;4452590;32;33866;-69
2022/12/15 07:04:03;;;;;;;57.00;32.65;;;;;;;1.77;73.80;99107.03;4453030;32;34030;-70
2022/12/15 07:06:35;;;;;;;52.85;30.27;;;;;;;1.96;72.33;99118.72;4452428;32;33906;-71
2022/12/15 07:09:06;;;;;;;52.92;29.25;;;;;;;2.16;71.67;99134.78;4438433;32;34015;-70
2022/12/15 07:11:34;;;;;;;14.05;6.50;;;;;;;2.22;72.04;99141.94;4424569;32;33062;-70
2022/12/15 07:14:02;;;;;;;55.45;27.92;;;;;;;1.53;74.76;99147.75;4438772;32;34721;-68
2022/12/15 07:16:30;;;;;;;53.58;30.40;;;;;;;1.66;73.82;99152.28;4438135;32;33615;-70
2022/12/15 07:18:57;;;;;;;57.03;30.05;;;;;;;1.62;74.62;99130.47;4453022;32;34909;-70
2022/12/15 07:21:25;;;;;;;30.40;17.45;;;;;;;1.85;73.63;99135.41;4453439;32;34269;-71
2022/12/15 07:23:52;;;;;;;18.67;11.52;;;;;;;2.23;72.32;99148.13;4443788;32;34232;-72
2022/12/15 07:26:23;;;;;;;58.03;32.60;;;;;;;2.35;71.90;99140.25;4447863;32;34551;-69
2022/12/15 07:28:52;;;;;;;1.75;1.40;;;;;;;2.30;70.98;99134.72;4453735;32;34750;-69
2022/12/15 07:31:21;;;;;;;53.50;30.25;;;;;;;1.88;73.21;99140.37;4462167;32;34052;-68
2022/12/15 07:33:50;;;;;;;56.40;30.83;;;;;;;1.15;76.98;99141.16;4469644;32;34797;-69
2022/12/15 07:36:19;;;;;;;54.45;30.15;;;;;;;1.74;74.68;99149.41;4459554;32;33413;-68
2022/12/15 07:38:46;;;;;;;2.33;2.10;;;;;;;2.42;72.05;99162.50;4450647;32;33910;-67
2022/12/15 07:41:18;;;;;;;55.78;31.58;;;;;;;1.92;73.25;99160.28;4450128;32;34037;-68
2022/12/15 07:43:46;;;;;;;55.63;31.08;;;;;;;2.35;72.20;99164.34;4440414;32;34838;-67
2022/12/15 07:46:15;;;;;;;56.30;33.90;;;;;;;2.36;71.61;99179.41;4461596;32;33703;-70
2022/12/15 07:48:42;;;;;;;61.15;34.08;;;;;;;2.09;72.99;99158.03;4455908;32;33464;-69
2022/12/15 07:51:18;;;;;;;58.42;33.92;;;;;;;2.27;71.93;99146.69;4456629;32;35010;-68
2022/12/15 07:53:48;;;;;;;57.58;33.10;;;;;;;1.92;73.63;99157.63;4455364;32;34176;-73
2022/12/15 07:56:18;;;;;;;59.30;32.22;;;;;;;1.52;75.97;99173.69;4447609;32;33701;-69
2022/12/15 07:58:45;;;;;;;51.58;29.80;;;;;;;2.26;73.46;99172.59;4469694;32;33951;-68
2022/12/15 08:01:13;;;;;;;51.92;30.77;;;;;;;1.72;75.04;99178.22;4455537;32;34263;-74
2022/12/15 08:03:41;;;;;;;52.95;30.73;;;;;;;1.71;75.95;99181.94;4469805;32;33898;-68
2022/12/15 08:06:11;;;;;;;51.58;29.02;;;;;;;1.92;75.38;99179.03;4461050;32;34549;-69
2022/12/15 08:08:39;;;;;;;4.47;3.40;;;;;;;2.35;73.98;99180.41;4440039;32;33349;-68
2022/12/15 08:11:08;;;;;;;49.03;28.48;;;;;;;2.09;74.80;99179.44;4439382;32;35129;-69
2022/12/15 08:13:37;;;;;;;48.22;27.90;;;;;;;2.42;73.08;99190.09;4447699;32;34173;-74
2022/12/15 08:16:24;;;;;;;12.82;7.45;;;;;;;2.77;71.37;99188.97;4447435;32;33843;-72
2022/12/15 08:18:52;;;;;;;52.92;29.65;;;;;;;2.35;73.03;99199.16;4440107;32;34487;-72
2022/12/15 08:21:20;;;;;;;54.45;29.98;;;;;;;2.61;71.63;99203.63;4440015;32;34161;-72
2022/12/15 08:23:48;;;;;;;57.35;34.15;;;;;;;2.36;73.48;99208.84;4453097;32;34843;-74
2022/12/15 08:26:17;;;;;;;16.95;8.15;;;;;;;2.60;72.55;99212.72;4462028;32;33762;-77
2022/12/15 08:28:44;;;;;;;51.92;30.00;;;;;;;2.97;71.25;99210.31;4443589;32;34555;-70
2022/12/15 08:31:15;;;;;;;51.33;29.63;;;;;;;2.79;71.04;99205.66;4439925;32;35143;-70
2022/12/15 08:33:44;;;;;;;51.17;30.55;;;;;;;2.62;72.28;99203.41;4440129;32;34956;-71
2022/12/15 08:36:15;;;;;;;48.65;29.12;;;;;;;2.88;70.86;99202.50;4439975;32;33711;-75
2022/12/15 08:38:44;;;;;;;49.30;29.00;;;;;;;2.93;70.31;99209.91;4453738;32;34843;-75
2022/12/15 08:41:13;;;;;;;4.07;3.53;;;;;;;1.88;74.80;99219.78;4453950;32;34965;-74
2022/12/15 08:43:41;;;;;;;50.88;30.17;;;;;;;1.49;76.27;99211.53;4427660;32;35086;-75
2022/12/15 08:46:26;;;;;;;45.08;28.62;;;;;;;2.19;74.45;99216.47;4439267;32;33684;-76
2022/12/15 08:48:54;;;;;;;7.78;5.18;;;;;;;2.56;73.40;99230.22;4439631;32;33999;-73
2022/12/15 08:51:23;;;;;;;2.60;2.03;;;;;;;3.34;70.29;99229.31;4454095;32;33890;-74
2022/12/15 08:53:51;;;;;;;49.67;29.30;;;;;;;3.03;70.52;99236.28;4437153;32;33856;-83
2022/12/15 08:56:22;;;;;;;49.00;29.02;;;;;;;2.98;71.32;99242.25;4439171;32;32213;-78
2022/12/15 08:58:57;;;;;;;60.63;31.33;;;;;;;2.81;72.48;99236.56;4439896;32;33771;-77
2022/12/15 09:01:26;;;;;;;56.37;30.85;;;;;;;2.78;71.62;99239.63;4439834;32;35158;-71
2022/12/15 09:03:55;;;;;;;50.67;28.10;;;;;;;3.43;69.96;99244.91;4452919;32;34144;-76
2022/12/15 09:06:26;;;;;;;47.90;27.90;;;;;;;2.68;72.94;99244.63;4439494;32;34334;-81
2022/12/15 09:08:58;;;;;;;48.85;29.45;;;;;;;2.74;72.36;99241.09;4452557;32;33915;-71
2022/12/15 09:11:27;;;;;;;48.97;28.73;;;;;;;2.36;74.32;99239.13;4451733;32;35131;-71
2022/12/15 09:13:58;;;;;;;48.30;28.45;;;;;;;2.95;71.34;99233.81;4438123;32;32516;-71
2022/12/15 09:16:26;;;;;;;49.35;29.52;;;;;;;2.40;74.18;99236.84;4439326;32;34478;-72
2022/12/15 09:18:56;;;;;;;47.72;28.95;;;;;;;2.73;73.25;99239.44;4452241;32;34056;-71
2022/12/15 09:21:25;;;;;;;47.72;28.12;;;;;;;3.27;70.55;99229.34;4438539;32;34883;-75
2022/12/15 09:23:56;;;;;;;49.00;27.95;;;;;;;3.25;70.46;99226.88;4425544;32;33448;-71
2022/12/15 09:26:24;;;;;;;50.15;28.20;;;;;;;3.06;71.26;99223.25;4447670;32;33769;-70
2022/12/15 09:28:53;;;;;;;63.15;34.72;;;;;;;2.94;72.55;99221.44;4454974;32;33646;-73
2022/12/15 09:31:23;;;;;;;56.35;32.95;;;;;;;2.64;73.45;99221.97;4454294;32;35010;-73
2022/12/15 09:33:53;;;;;;;53.40;31.83;;;;;;;2.56;73.66;99214.97;4445007;32;34115;-73
2022/12/15 09:36:21;;;;;;;54.10;31.48;;;;;;;2.83;72.51;99217.56;4445438;32;34691;-75
2022/12/15 09:38:49;;;;;;;52.60;30.48;;;;;;;2.07;76.11;99215.47;4439027;32;33897;-75
2022/12/15 09:41:23;;;;;;;51.88;29.85;;;;;;;2.51;75.01;99219.34;4437765;32;34231;-75
2022/12/15 09:43:54;;;;;;;54.58;28.85;;;;;;;2.36;74.89;99230.28;4438370;32;34355;-76
2022/12/15 09:47:00;;;;;;;49.90;30.25;;;;;;;2.90;73.00;99239.00;4451438;32;34206;-76
2022/12/15 09:49:46;;;;;;;3.97;3.53;;;;;;;2.78;72.48;99239.63;4439284;32;33861;-77
2022/12/15 09:52:17;;;;;;;54.90;30.30;;;;;;;2.78;72.85;99241.50;4451083;32;34001;-76
2022/12/15 09:54:45;;;;;;;50.63;30.45;;;;;;;2.92;72.30;99244.97;4437886;32;34177;-78
2022/12/15 09:57:25;;;;;;;49.80;31.35;;;;;;;2.77;73.16;99239.87;4453006;32;33359;-77
2022/12/15 10:00:20;;;;;;;55.33;31.80;;;;;;;3.15;72.44;99247.13;4439025;32;33843;-78
2022/12/15 10:03:07;;;;;;;52.05;29.35;;;;;;;3.51;70.79;99257.28;4439351;32;34173;-76
2022/12/15 10:05:51;;;;;;;49.83;28.98;;;;;;;3.45;70.84;99248.22;4453161;32;34085;-76
2022/12/15 10:09:07;;;;;;;49.78;29.92;;;;;;;3.12;71.96;99248.38;4440880;32;33540;-75
2022/12/15 10:11:37;;;;;;;50.80;27.92;;;;;;;2.82;73.36;99248.09;4449263;32;33766;-79
2022/12/15 10:14:15;;;;;;;47.90;29.30;;;;;;;3.27;72.22;99245.44;4450519;32;35027;-75
2022/12/15 10:16:45;;;;;;;51.25;29.33;;;;;;;3.51;71.25;99251.91;4438913;32;35054;-69
2022/12/15 10:19:40;;;;;;;50.47;29.20;;;;;;;4.05;69.08;99257.75;4452899;32;34693;-74
2022/12/15 10:22:28;;;;;;;51.95;30.30;;;;;;;3.79;70.29;99254.22;4452029;32;33457;-76
2022/12/15 10:24:59;;;;;;;50.15;28.83;;;;;;;3.77;70.76;99239.37;4438609;32;33976;-72
2022/12/15 10:28:13;;;;;;;51.88;30.85;;;;;;;4.08;68.87;99239.34;4438873;32;34313;-72
2022/12/15 10:31:10;;;;;;;5.78;4.93;;;;;;;3.60;70.91;99239.06;4456171;32;33849;-71
2022/12/15 10:33:39;;;;;;;52.22;29.60;;;;;;;4.28;67.99;99231.13;4461964;32;34064;-72
2022/12/15 10:36:15;;;;;;;48.40;28.77;;;;;;;3.55;70.28;99220.94;4454873;32;34970;-74
2022/12/15 10:38:46;;;;;;;46.60;28.60;;;;;;;3.18;72.22;99222.59;4467796;32;34170;-75
2022/12/15 10:41:21;;;;;;;51.53;28.95;;;;;;;3.25;71.96;99223.37;4441305;32;32886;-76
2022/12/15 10:43:50;;;;;;;52.03;27.98;;;;;;;3.92;69.50;99228.31;4452619;32;33866;-77
2022/12/15 10:46:17;;;;;;;57.38;30.80;;;;;;;3.84;70.67;99240.13;4469108;32;34204;-80
2022/12/15 10:48:55;;;;;;;50.83;29.60;;;;;;;3.67;71.29;99231.78;4468704;32;34207;-75
2022/12/15 10:51:30;;;;;;;52.70;29.67;;;;;;;3.74;70.81;99237.94;4470130;32;33911;-81
2022/12/15 10:54:00;;;;;;;49.22;28.92;;;;;;;3.62;70.85;99232.44;4442674;32;32368;-79
2022/12/15 10:56:28;;;;;;;53.75;32.30;;;;;;;3.77;70.52;99229.44;4470230;32;34887;-82
2022/12/15 10:59:05;;;;;;;54.30;30.62;;;;;;;3.64;70.27;99234.91;4456704;32;34199;-80
2022/12/15 11:01:33;;;;;;;55.00;31.83;;;;;;;3.67;70.65;99224.59;4455815;32;34017;-76
2022/12/15 11:04:01;;;;;;;54.88;30.92;;;;;;;3.65;71.60;99229.34;4468294;32;33580;-76
2022/12/15 11:06:31;;;;;;;51.53;30.70;;;;;;;3.53;71.53;99231.06;4470017;32;34193;-69
2022/12/15 11:09:26;;;;;;;52.67;30.55;;;;;;;3.84;71.39;99238.28;4455720;32;35034;-70
2022/12/15 11:14:45;;;;;;;60.72;31.33;;;;;;;3.98;69.64;99249.75;4457690;32;33604;-74
2022/12/15 11:17:19;;;;;;;53.05;30.73;;;;;;;3.69;71.36;99243.12;4469926;32;34188;-74
2022/12/15 11:19:47;;;;;;;59.13;31.70;;;;;;;3.45;72.10;99239.34;4456034;32;34013;-75
2022/12/15 11:22:25;;;;;;;62.92;32.22;;;;;;;3.88;70.68;99242.16;4467768;32;33796;-74
2022/12/15 11:24:58;;;;;;;4.93;4.47;;;;;;;3.79;71.30;99246.16;4469907;32;34850;-73
2022/12/15 11:27:31;;;;;;;61.92;31.77;;;;;;;3.90;70.18;99233.91;4455777;32;34052;-75
2022/12/15 11:30:08;;;;;;;56.37;31.73;;;;;;;3.89;70.71;99232.28;4456244;32;35145;-73
2022/12/15 11:32:37;;;;;;;64.03;32.25;;;;;;;3.95;71.00;99235.94;4470350;32;33683;-76
2022/12/15 11:35:11;;;;;;;58.95;32.88;;;;;;;3.88;71.11;99236.81;4456161;32;33581;-73
2022/12/15 11:37:42;;;;;;;55.90;30.83;;;;;;;4.01;70.01;99235.88;4470180;32;34917;-75
2022/12/15 11:40:19;;;;;;;61.65;32.58;;;;;;;3.17;73.49;99232.47;4455941;32;33017;-73
2022/12/15 11:43:11;;;;;;;65.05;33.83;;;;;;;3.59;72.20;99237.44;4456225;32;33880;-76
2022/12/15 11:45:58;;;;;;;2.50;1.90;;;;;;;3.74;72.59;99237.09;4456092;32;34770;-76
2022/12/15 11:48:40;;;;;;;60.80;31.73;;;;;;;4.17;71.28;99255.16;4469955;32;34269;-75
2022/12/15 11:51:14;;;;;;;59.22;32.55;;;;;;;4.09;71.24;99254.41;4443327;32;34285;-75
2022/12/15 11:53:59;;;;;;;64.20;33.20;;;;;;;4.28;70.18;99263.34;4455960;32;33814;-75
2022/12/15 11:56:37;;;;;;;59.40;31.75;;;;;;;4.06;71.19;99259.38;4454324;32;34296;-75
2022/12/15 11:59:26;;;;;;;3.97;3.37;;;;;;;4.55;69.28;99259.59;4455709;32;34012;-74
2022/12/15 12:02:12;;;;;;;54.92;29.80;;;;;;;4.77;68.34;99260.81;4450468;32;34151;-74
2022/12/15 12:05:00;;;;;;;56.92;30.37;;;;;;;4.51;68.90;99260.06;4437631;32;34449;-71
2022/12/15 12:08:08;;;;;;;64.70;29.70;;;;;;;4.36;69.34;99267.59;4436189;32;33692;-76
2022/12/15 12:11:08;;;;;;;59.03;30.17;;;;;;;4.31;70.09;99254.03;4428994;32;34339;-76
2022/12/15 12:13:40;;;;;;;53.45;30.23;;;;;;;4.17;71.12;99253.31;4443701;32;34211;-75
2022/12/15 12:16:34;;;;;;;54.10;29.90;;;;;;;4.49;69.94;99242.47;4468623;32;33669;-76
2022/12/15 12:19:08;;;;;;;57.67;30.35;;;;;;;4.99;68.37;99241.53;4445135;32;33872;-75
2022/12/15 12:21:48;;;;;;;57.67;31.12;;;;;;;4.53;69.33;99246.37;4467612;32;35074;-75
2022/12/15 12:24:41;;;;;;;59.33;31.08;;;;;;;4.75;69.15;99243.25;4447877;32;35029;-77
2022/12/15 12:27:16;;;;;;;55.42;29.60;;;;;;;4.68;69.20;99257.59;4438986;32;34464;-75
2022/12/15 12:29:46;;;;;;;60.00;31.17;;;;;;;4.48;69.22;99230.94;4447699;32;33728;-76
2022/12/15 12:32:41;;;;;;;60.25;31.27;;;;;;;3.99;72.25;99232.59;4454105;32;33702;-70
2022/12/15 12:35:30;;;;;;;54.65;29.80;;;;;;;4.11;72.27;99236.22;4439077;32;34267;-73
2022/12/15 12:38:05;;;;;;;66.10;32.53;;;;;;;4.42;71.50;99242.56;4438894;32;33760;-74
2022/12/15 12:40:53;;;;;;;27.30;8.95;;;;;;;4.40;71.24;99235.75;4438868;32;33803;-75
2022/12/15 12:43:42;;;;;;;63.08;33.25;;;;;;;4.31;71.82;99229.84;4452732;32;34799;-74
2022/12/15 12:46:22;;;;;;;60.12;31.48;;;;;;;4.61;70.09;99224.59;4448886;32;34149;-75
2022/12/15 12:49:02;;;;;;;65.28;35.75;;;;;;;4.27;71.85;99234.84;4468143;32;34441;-75
2022/12/15 12:51:30;;;;;;;62.55;32.70;;;;;;;4.23;72.13;99238.19;4454464;32;33652;-72
2022/12/15 12:53:58;;;;;;;66.03;34.22;;;;;;;4.01;73.10;99232.38;4454329;32;34211;-75
2022/12/15 12:56:43;;;;;;;62.53;34.33;;;;;;;4.42;71.49;99237.19;4468310;32;34066;-75
2022/12/15 12:59:27;;;;;;;66.15;34.70;;;;;;;4.80;70.00;99243.44;4468039;32;33315;-75
2022/12/15 13:02:09;;;;;;;65.68;34.15;;;;;;;4.28;72.04;99244.53;4467805;32;33905;-73
2022/12/15 13:04:40;;;;;;;62.33;34.33;;;;;;;4.08;72.99;99246.56;4466497;32;34182;-74
2022/12/15 13:07:37;;;;;;;70.07;39.58;;;;;;;3.84;73.96;99250.88;4454005;32;34991;-73
2022/12/15 13:10:08;;;;;;;65.18;36.08;;;;;;;3.98;73.69;99255.13;4450163;32;33792;-75
2022/12/15 13:12:45;;;;;;;66.35;34.65;;;;;;;4.28;72.96;99252.59;4452199;32;33438;-74
2022/12/15 13:15:29;;;;;;;71.82;37.33;;;;;;;4.13;73.45;99267.41;4452408;32;34244;-73
2022/12/15 13:18:13;;;;;;;70.50;38.17;;;;;;;3.48;76.41;99261.22;4451949;32;35072;-74
2022/12/15 13:20:42;;;;;;;68.32;38.35;;;;;;;3.85;75.46;99255.22;4453495;32;33367;-75
2022/12/15 13:23:18;;;;;;;73.75;38.33;;;;;;;3.66;75.80;99267.72;4453911;32;33454;-74
2022/12/15 13:25:52;;;;;;;74.65;39.38;;;;;;;3.31;77.91;99260.06;4467980;32;34730;-75
2022/12/15 13:28:26;;;;;;;75.12;41.55;;;;;;;3.37;78.20;99261.06;4454101;32;34931;-72
2022/12/15 13:31:19;;;;;;;83.03;41.45;;;;;;;3.61;76.65;99256.81;4445697;32;33394;-73
2022/12/15 13:33:51;;;;;;;68.68;37.78;;;;;;;3.81;76.29;99260.19;4452443;32;33957;-74
2022/12/15 13:36:37;;;;;;;71.12;38.88;;;;;;;4.18;74.20;99270.25;4449228;32;35075;-73
2022/12/15 13:39:10;;;;;;;69.72;37.80;;;;;;;4.22;73.21;99268.78;4436759;32;33906;-71
2022/12/15 13:41:47;;;;;;;72.53;38.15;;;;;;;4.02;74.69;99279.66;4437025;32;33326;-75
2022/12/15 13:44:40;;;;;;;67.03;36.13;;;;;;;3.69;76.03;99272.62;4436789;32;34616;-74
2022/12/15 13:47:15;;;;;;;68.57;36.75;;;;;;;3.77;76.53;99271.56;4422451;32;34272;-75
2022/12/15 13:49:45;;;;;;;;;;;;;;;4.14;74.53;99260.97;4436025;32;34038;-75
2022/12/15 13:52:32;;;;;;;68.47;34.92;;;;;;;4.24;74.62;99269.37;4449797;32;33121;-74
2022/12/15 13:55:34;;;;;;;68.00;35.78;;;;;;;4.00;75.30;99266.47;4425043;32;34570;-74
2022/12/15 13:58:14;;;;;;;67.87;36.58;;;;;;;3.97;75.89;99268.75;4435271;32;34368;-74
2022/12/15 14:00:53;;;;;;;75.28;38.40;;;;;;;4.22;74.94;99268.78;4435849;32;34814;-74
2022/12/15 14:03:21;;;;;;;84.72;40.70;;;;;;;4.06;75.62;99262.91;4436581;32;33366;-74
2022/12/15 14:05:57;;;;;;;79.85;40.40;;;;;;;3.92;76.34;99266.72;4422670;32;33974;-72
2022/12/15 14:08:27;;;;;;;74.15;38.88;;;;;;;3.52;78.11;99264.31;4422484;32;34312;-73
2022/12/15 14:10:58;;;;;;;77.60;40.05;;;;;;;2.67;82.18;99262.53;4432809;32;33942;-74
2022/12/15 14:13:29;;;;;;;77.90;39.75;;;;;;;3.05;81.71;99259.13;4438210;32;33875;-74
2022/12/15 14:16:04;;;;;;;77.32;39.42;;;;;;;3.27;80.96;99262.34;4451201;32;33793;-75
2022/12/15 14:18:37;;;;;;;78.10;40.30;;;;;;;4.05;77.06;99265.81;4444895;32;35072;-71